Time;durP1;ratioP1;P1;durP2;ratioP2;P2;SDS_P1;SDS_P2;PMS_P1;PMS_P2;Temp;Humidity;BMP_temperature;BMP_pressure;BME280_temperature;BME280_humidity;BME280_pressure;Samples;Min_cycle;Max_cycle;Signal;HPM_P1;HPM_P2
2022/12/25 00:00:30;;;;;;;21.23;10.23;;;;;;;;;;5055447;28;20548;-71
2022/12/25 00:02:56;;;;;;;25.40;11.07;;;;;;;;;;5072623;28;20432;-71
2022/12/25 00:05:25;;;;;;;22.20;10.83;;;;;;;;;;5072863;28;20449;-71
2022/12/25 00:08:20;;;;;;;23.93;11.67;;;;;;;;;;5073066;28;20454;-71
2022/12/25 00:10:47;;;;;;;23.30;11.37;;;;;;;;;;5072120;28;20768;-71
2022/12/25 00:13:13;;;;;;;23.70;10.43;;;;;;;;;;5069995;28;20431;-71
2022/12/25 00:15:40;;;;;;;26.50;11.40;;;;;;;;;;5072869;28;20421;-71
2022/12/25 00:18:07;;;;;;;23.67;10.67;;;;;;;;;;5038474;28;20539;-71
2022/12/25 00:20:34;;;;;;;25.37;11.43;;;;;;;;;;5072809;28;20436;-71
2022/12/25 00:23:01;;;;;;;22.33;10.87;;;;;;;;;;5054720;28;20440;-71
2022/12/25 00:25:28;;;;;;;22.93;11.27;;;;;;;;;;5054650;28;20557;-71
2022/12/25 00:27:54;;;;;;;23.20;11.10;;;;;;;;;;5072698;28;20435;-71
2022/12/25 00:30:21;;;;;;;23.20;11.17;;;;;;;;;;5072481;28;20421;-71
2022/12/25 00:32:48;;;;;;;22.50;11.17;;;;;;;;;;5055903;28;20449;-71
2022/12/25 00:35:15;;;;;;;25.27;10.77;;;;;;;;;;5052438;28;20425;-71
2022/12/25 00:37:43;;;;;;;23.63;11.20;;;;;;;;;;5051637;28;20497;-71
2022/12/25 00:40:09;;;;;;;25.83;11.73;;;;;;;;;;5052303;28;20928;-71
2022/12/25 00:42:37;;;;;;;22.57;10.40;;;;;;;;;;5052548;28;20433;-71
2022/12/25 00:45:04;;;;;;;25.30;11.40;;;;;;;;;;5050775;28;20476;-71
2022/12/25 00:47:31;;;;;;;23.87;11.83;;;;;;;;;;5052305;28;20418;-71
2022/12/25 00:49:59;;;;;;;24.50;11.77;;;;;;;;;;5068228;28;20970;-71
2022/12/25 00:52:25;;;;;;;25.57;11.80;;;;;;;;;;5071806;28;20433;-71
2022/12/25 00:54:52;;;;;;;21.97;10.77;;;;;;;;;;5071984;28;20432;-71
2022/12/25 00:57:19;;;;;;;28.03;12.17;;;;;;;;;;5072114;28;20413;-71
2022/12/25 00:59:45;;;;;;;27.27;11.13;;;;;;;;;;5071702;28;20428;-71
2022/12/25 01:02:24;;;;;;;26.10;11.73;;;;;;;;;;5071914;28;20455;-71
2022/12/25 01:04:54;;;;;;;27.73;12.23;;;;;;;;;;5071503;28;20894;-71
2022/12/25 01:07:22;;;;;;;27.33;11.90;;;;;;;;;;5054175;28;21206;-71
2022/12/25 01:12:52;;;;;;;27.17;11.37;;;;;;;;;;5033969;28;20425;-71
2022/12/25 01:15:18;;;;;;;25.27;11.60;;;;;;;;;;5033900;28;20421;-71
2022/12/25 01:17:45;;;;;;;26.53;12.47;;;;;;;;;;5051489;28;20440;-71
2022/12/25 01:20:13;;;;;;;26.17;12.33;;;;;;;;;;5051581;28;20409;-71
2022/12/25 01:22:39;;;;;;;27.93;12.73;;;;;;;;;;5017697;28;20429;-71
2022/12/25 01:25:23;;;;;;;28.97;13.33;;;;;;;;;;5051228;28;20456;-71
2022/12/25 01:27:50;;;;;;;25.60;12.83;;;;;;;;;;5051382;28;20483;-71
2022/12/25 01:30:17;;;;;;;31.50;13.63;;;;;;;;;;5051243;28;20500;-71
2022/12/25 01:32:43;;;;;;;32.17;13.70;;;;;;;;;;5033647;28;20414;-71
2022/12/25 01:35:10;;;;;;;29.97;13.57;;;;;;;;;;5051605;28;21132;-71
2022/12/25 01:37:37;;;;;;;33.00;13.40;;;;;;;;;;5051382;28;20405;-71
2022/12/25 01:40:04;;;;;;;32.53;13.37;;;;;;;;;;5033250;28;20800;-71
2022/12/25 01:42:31;;;;;;;32.17;14.27;;;;;;;;;;5033800;28;20745;-71
2022/12/25 01:45:26;;;;;;;32.53;13.90;;;;;;;;;;5033576;28;20487;-71
2022/12/25 01:47:53;;;;;;;32.23;13.93;;;;;;;;;;5051161;28;20445;-71
2022/12/25 01:50:20;;;;;;;30.07;13.33;;;;;;;;;;5050324;28;20467;-71
2022/12/25 01:52:47;;;;;;;28.47;12.87;;;;;;;;;;5037693;28;20903;-71
2022/12/25 01:55:13;;;;;;;33.80;14.20;;;;;;;;;;5052504;28;20428;-71
2022/12/25 01:57:40;;;;;;;30.57;13.40;;;;;;;;;;5052406;28;20432;-71
2022/12/25 02:00:07;;;;;;;29.77;12.87;;;;;;;;;;5052896;28;20440;-71
2022/12/25 02:02:34;;;;;;;30.00;13.23;;;;;;;;;;5053379;28;20960;-71
2022/12/25 02:05:06;;;;;;;30.27;12.87;;;;;;;;;;5049947;28;20473;-71
2022/12/25 02:07:33;;;;;;;30.27;13.00;;;;;;;;;;5049534;28;20431;-71
2022/12/25 02:10:00;;;;;;;32.03;13.97;;;;;;;;;;5049366;28;20433;-71
2022/12/25 02:12:28;;;;;;;28.97;13.53;;;;;;;;;;5048173;28;20528;-71
2022/12/25 02:14:56;;;;;;;29.47;13.27;;;;;;;;;;5049302;28;20495;-71
2022/12/25 02:17:39;;;;;;;29.53;13.53;;;;;;;;;;5049162;28;20967;-71
2022/12/25 02:20:22;;;;;;;33.87;13.63;;;;;;;;;;5048842;28;20453;-71
2022/12/25 02:23:21;;;;;;;28.20;12.67;;;;;;;;;;5031719;28;20441;-71
2022/12/25 02:25:48;;;;;;;25.63;12.07;;;;;;;;;;5026217;28;20468;-71
2022/12/25 02:28:14;;;;;;;28.20;12.63;;;;;;;;;;5047650;28;20441;-71
2022/12/25 02:30:50;;;;;;;29.50;13.23;;;;;;;;;;5049413;28;20497;-71
2022/12/25 02:36:08;;;;;;;28.73;12.30;;;;;;;;;;5033928;28;20475;-71
2022/12/25 02:39:56;;;;;;;32.37;13.00;;;;;;;;;;5031587;28;20448;-71
2022/12/25 02:41:26;;;;;;;25.17;11.70;;;;;;;;;;5034186;28;21201;-71
2022/12/25 03:08:49;;;;;;;27.70;12.00;;;;;;;;;;5057374;28;20432;-71
2022/12/25 03:11:31;;;;;;;29.83;13.20;;;;;;;;;;5054846;28;20416;-71
2022/12/25 03:16:49;;;;;;;26.23;13.03;;;;;;;;;;5072108;28;20811;-71
2022/12/25 03:27:33;;;;;;;32.20;13.17;;;;;;;;;;5057474;28;20889;-71
2022/12/25 03:32:48;;;;;;;30.37;13.20;;;;;;;;;;5051980;28;20425;-71
2022/12/25 03:35:22;;;;;;;31.87;13.90;;;;;;;;;;5052303;28;20433;-71
2022/12/25 04:36:48;;;;;;;37.77;15.07;;;;;;;;;;5048479;28;21034;-70
2022/12/25 04:39:32;;;;;;;38.07;16.10;;;;;;;;;;5051381;28;20413;-71
2022/12/25 04:41:59;;;;;;;37.50;13.30;;;;;;;;;;5049695;28;20968;-70
2022/12/25 04:44:26;;;;;;;33.70;13.23;;;;;;;;;;5049229;28;20452;-70
2022/12/25 04:46:53;;;;;;;38.47;14.13;;;;;;;;;;5050102;28;20530;-71
2022/12/25 04:49:20;;;;;;;35.97;13.23;;;;;;;;;;5050778;28;20508;-71
2022/12/25 04:52:04;;;;;;;33.97;13.40;;;;;;;;;;5035316;28;20464;-71
2022/12/25 04:54:31;;;;;;;34.27;13.93;;;;;;;;;;5036560;28;20963;-71
2022/12/25 04:56:57;;;;;;;32.67;12.87;;;;;;;;;;5070571;28;20499;-71
2022/12/25 04:59:24;;;;;;;36.97;13.47;;;;;;;;;;5070310;28;20425;-71
2022/12/25 05:01:51;;;;;;;30.70;13.43;;;;;;;;;;5052709;28;20436;-71
2022/12/25 05:04:35;;;;;;;33.60;13.03;;;;;;;;;;5070561;28;20904;-71
2022/12/25 05:07:02;;;;;;;36.23;13.67;;;;;;;;;;5048896;28;20477;-71
2022/12/25 05:09:29;;;;;;;31.43;12.33;;;;;;;;;;5050648;28;20543;-71
2022/12/25 05:11:55;;;;;;;48.20;14.10;;;;;;;;;;5032631;28;20949;-71
2022/12/25 05:14:22;;;;;;;35.00;14.03;;;;;;;;;;5049985;28;20479;-71
2022/12/25 05:16:49;;;;;;;31.77;13.27;;;;;;;;;;5049918;28;20557;-71
2022/12/25 05:19:15;;;;;;;32.63;14.13;;;;;;;;;;5050400;28;20540;-71
2022/12/25 05:21:42;;;;;;;28.80;12.63;;;;;;;;;;5050272;28;20956;-71
2022/12/25 05:24:26;;;;;;;30.73;12.73;;;;;;;;;;5050197;28;20409;-71
2022/12/25 05:26:53;;;;;;;33.00;12.97;;;;;;;;;;5032531;28;20460;-71
2022/12/25 05:29:37;;;;;;;32.50;12.97;;;;;;;;;;5034782;28;20416;-71
2022/12/25 05:32:04;;;;;;;35.57;13.17;;;;;;;;;;5049873;28;20421;-71
2022/12/25 05:34:30;;;;;;;30.20;12.67;;;;;;;;;;5049970;28;20413;-71
2022/12/25 05:36:57;;;;;;;30.20;13.00;;;;;;;;;;5049713;28;20460;-71
2022/12/25 05:39:24;;;;;;;37.73;13.83;;;;;;;;;;5029268;28;20419;-71
2022/12/25 05:41:50;;;;;;;36.87;14.20;;;;;;;;;;5031219;28;20751;-71
2022/12/25 05:44:17;;;;;;;34.17;13.03;;;;;;;;;;5050246;28;20433;-71
2022/12/25 05:46:44;;;;;;;38.17;12.93;;;;;;;;;;5049188;28;20453;-71
2022/12/25 05:49:11;;;;;;;33.30;13.43;;;;;;;;;;5049782;28;20482;-71
2022/12/25 05:51:37;;;;;;;33.50;13.87;;;;;;;;;;5050284;28;20534;-71
2022/12/25 05:54:05;;;;;;;39.50;14.70;;;;;;;;;;5064630;28;20432;-71
2022/12/25 05:56:32;;;;;;;35.40;13.90;;;;;;;;;;5052034;28;20424;-71
2022/12/25 05:58:59;;;;;;;32.57;14.10;;;;;;;;;;5069594;28;20772;-71
2022/12/25 06:01:26;;;;;;;38.80;14.53;;;;;;;;;;5069719;28;20421;-71
2022/12/25 06:03:53;;;;;;;35.73;14.13;;;;;;;;;;5061100;28;20445;-71
2022/12/25 06:06:20;;;;;;;35.60;13.97;;;;;;;;;;5049973;28;20954;-71
2022/12/25 06:08:46;;;;;;;33.30;13.17;;;;;;;;;;5049599;28;20429;-71
2022/12/25 06:11:13;;;;;;;39.90;14.07;;;;;;;;;;5049657;28;20429;-71
2022/12/25 06:13:40;;;;;;;40.43;14.87;;;;;;;;;;5031800;28;20503;-70
2022/12/25 06:16:07;;;;;;;36.07;13.83;;;;;;;;;;5049609;28;21169;-71
2022/12/25 06:18:35;;;;;;;38.40;14.80;;;;;;;;;;5049844;28;20452;-71
2022/12/25 06:21:05;;;;;;;41.57;14.83;;;;;;;;;;5049668;28;20430;-71
2022/12/25 06:23:31;;;;;;;37.80;14.73;;;;;;;;;;5049610;28;20977;-71
2022/12/25 06:25:59;;;;;;;36.33;14.80;;;;;;;;;;5049602;28;20425;-71
2022/12/25 06:28:25;;;;;;;39.57;14.90;;;;;;;;;;5048933;28;20868;-71
2022/12/25 06:30:52;;;;;;;43.40;15.97;;;;;;;;;;5049526;28;20413;-71
2022/12/25 06:33:19;;;;;;;42.23;15.67;;;;;;;;;;5049582;28;20429;-71
2022/12/25 06:35:45;;;;;;;35.53;14.77;;;;;;;;;;5051360;28;20429;-71
2022/12/25 06:38:12;;;;;;;40.27;15.10;;;;;;;;;;5053234;28;20483;-71
2022/12/25 06:41:01;;;;;;;39.30;15.33;;;;;;;;;;5053549;28;20428;-71
2022/12/25 06:43:28;;;;;;;37.90;14.63;;;;;;;;;;5035194;28;20465;-71
2022/12/25 06:45:54;;;;;;;30.27;13.90;;;;;;;;;;5053441;28;20463;-71
2022/12/25 06:48:21;;;;;;;35.73;14.63;;;;;;;;;;5053394;28;20468;-71
2022/12/25 06:50:48;;;;;;;36.37;15.00;;;;;;;;;;5052999;28;20450;-71
2022/12/25 06:53:14;;;;;;;37.97;15.67;;;;;;;;;;5061311;28;20772;-71
2022/12/25 06:55:41;;;;;;;37.27;14.70;;;;;;;;;;5072668;28;20539;-71
2022/12/25 06:58:08;;;;;;;39.37;15.03;;;;;;;;;;5072884;28;21416;-71
2022/12/25 07:00:35;;;;;;;36.63;14.80;;;;;;;;;;5073424;28;20432;-71
2022/12/25 07:03:01;;;;;;;39.33;15.37;;;;;;;;;;5072195;28;20436;-71
2022/12/25 07:05:28;;;;;;;41.83;15.03;;;;;;;;;;5055232;28;20413;-70
2022/12/25 07:07:55;;;;;;;42.13;15.90;;;;;;;;;;5072849;28;20476;-71
2022/12/25 07:10:22;;;;;;;42.80;15.70;;;;;;;;;;5072739;28;20436;-71
2022/12/25 07:12:48;;;;;;;37.87;14.83;;;;;;;;;;5072801;28;20523;-71
2022/12/25 07:15:15;;;;;;;40.80;15.73;;;;;;;;;;5073119;28;20428;-71
2022/12/25 07:17:42;;;;;;;42.73;15.63;;;;;;;;;;5054853;28;20428;-70
2022/12/25 07:20:09;;;;;;;40.73;15.70;;;;;;;;;;5050229;28;20433;-71
2022/12/25 07:22:36;;;;;;;40.40;15.30;;;;;;;;;;5052894;28;20425;-71
2022/12/25 07:25:03;;;;;;;42.43;15.90;;;;;;;;;;5052443;28;20414;-71
2022/12/25 07:27:30;;;;;;;47.63;16.50;;;;;;;;;;5052747;28;20459;-71
2022/12/25 07:29:56;;;;;;;38.60;16.03;;;;;;;;;;5034643;28;20417;-71
2022/12/25 07:32:23;;;;;;;48.53;16.33;;;;;;;;;;5052413;28;20523;-71
2022/12/25 07:34:50;;;;;;;65.03;20.70;;;;;;;;;;5052545;28;20430;-70
2022/12/25 07:37:17;;;;;;;87.23;27.97;;;;;;;;;;5034557;28;20523;-71
2022/12/25 07:39:44;;;;;;;102.60;30.00;;;;;;;;;;5051404;28;20467;-71
2022/12/25 07:42:10;;;;;;;69.80;22.27;;;;;;;;;;5034665;28;20426;-71
2022/12/25 07:44:37;;;;;;;53.00;18.27;;;;;;;;;;5052108;28;20410;-70
2022/12/25 07:47:04;;;;;;;46.13;18.23;;;;;;;;;;5049565;28;20999;-70
2022/12/25 07:49:30;;;;;;;51.60;19.07;;;;;;;;;;5041226;28;20987;-71
2022/12/25 07:52:15;;;;;;;47.67;17.73;;;;;;;;;;5045117;28;20763;-71
2022/12/25 07:54:42;;;;;;;41.30;16.73;;;;;;;;;;5052169;28;20456;-71
2022/12/25 07:57:09;;;;;;;43.60;16.53;;;;;;;;;;5051966;28;20456;-71
2022/12/25 07:59:36;;;;;;;40.13;16.57;;;;;;;;;;5051798;28;20442;-71
2022/12/25 08:02:02;;;;;;;43.00;18.03;;;;;;;;;;5051819;28;20512;-71
2022/12/25 08:04:47;;;;;;;50.67;20.73;;;;;;;;;;5033383;28;20417;-71
2022/12/25 08:07:14;;;;;;;46.83;18.20;;;;;;;;;;5051725;28;20473;-71
2022/12/25 08:09:41;;;;;;;43.03;17.87;;;;;;;;;;5051748;28;20429;-71
2022/12/25 08:12:07;;;;;;;40.63;17.27;;;;;;;;;;5051777;28;20513;-71
2022/12/25 08:14:34;;;;;;;47.50;18.37;;;;;;;;;;5051377;28;20837;-71
2022/12/25 08:17:18;;;;;;;61.07;22.90;;;;;;;;;;5051516;28;20500;-71
2022/12/25 08:19:45;;;;;;;66.63;25.67;;;;;;;;;;5049895;28;20421;-70
2022/12/25 08:22:29;;;;;;;75.67;26.87;;;;;;;;;;5050372;28;20456;-71
2022/12/25 08:24:56;;;;;;;69.23;26.93;;;;;;;;;;5050032;28;20430;-71
2022/12/25 08:27:23;;;;;;;62.07;25.57;;;;;;;;;;5051436;28;20476;-71
2022/12/25 08:29:49;;;;;;;51.10;22.50;;;;;;;;;;5051312;28;20429;-71
2022/12/25 08:32:16;;;;;;;46.80;20.60;;;;;;;;;;5051159;28;20528;-71
2022/12/25 08:35:00;;;;;;;41.17;18.17;;;;;;;;;;5049941;28;20420;-71
2022/12/25 08:37:30;;;;;;;43.50;18.00;;;;;;;;;;5050685;28;20425;-71
2022/12/25 08:39:58;;;;;;;37.43;17.60;;;;;;;;;;5049562;28;20480;-71
2022/12/25 08:42:25;;;;;;;42.03;19.57;;;;;;;;;;5049431;28;20445;-71
2022/12/25 08:44:52;;;;;;;41.47;18.77;;;;;;;;;;5049405;28;20448;-71
2022/12/25 08:47:19;;;;;;;38.57;18.37;;;;;;;;;;5050760;28;20899;-71
2022/12/25 08:49:47;;;;;;;44.43;20.07;;;;;;;;;;5050573;28;20468;-71
2022/12/25 08:52:14;;;;;;;40.07;19.37;;;;;;;;;;5051004;28;20422;-71
2022/12/25 08:54:41;;;;;;;43.47;19.83;;;;;;;;;;5050793;28;21105;-71
2022/12/25 08:57:08;;;;;;;40.43;19.23;;;;;;;;;;5050330;28;20540;-71
2022/12/25 08:59:36;;;;;;;46.47;21.23;;;;;;;;;;5015902;28;20461;-71
2022/12/25 09:02:20;;;;;;;38.70;18.73;;;;;;;;;;5050641;28;20446;-71
2022/12/25 09:04:48;;;;;;;45.03;20.30;;;;;;;;;;5032730;28;20809;-71
2022/12/25 09:07:18;;;;;;;46.03;19.83;;;;;;;;;;5050389;28;20567;-71
2022/12/25 09:09:46;;;;;;;51.70;23.60;;;;;;;;;;5050532;28;20430;-71
2022/12/25 09:12:14;;;;;;;79.97;33.60;;;;;;;;;;5050468;28;20436;-71
2022/12/25 09:14:41;;;;;;;56.67;29.60;;;;;;;;;;5049350;28;20437;-71
2022/12/25 09:17:08;;;;;;;67.23;30.83;;;;;;;;;;5050484;28;20429;-71
2022/12/25 09:19:35;;;;;;;196.53;63.07;;;;;;;;;;5032622;28;20468;-71
2022/12/25 09:22:02;;;;;;;151.00;53.73;;;;;;;;;;5048937;28;21273;-71
2022/12/25 09:24:29;;;;;;;76.00;32.60;;;;;;;;;;5050233;28;20443;-71
2022/12/25 09:26:56;;;;;;;62.50;28.73;;;;;;;;;;5050171;28;20754;-71
2022/12/25 09:29:23;;;;;;;61.10;27.50;;;;;;;;;;5049693;28;20972;-71
2022/12/25 09:31:50;;;;;;;53.23;25.00;;;;;;;;;;5032017;28;20468;-71
2022/12/25 09:34:17;;;;;;;55.97;25.20;;;;;;;;;;5050120;28;20438;-71
2022/12/25 09:36:44;;;;;;;46.27;21.43;;;;;;;;;;5050030;28;21002;-71
2022/12/25 09:39:11;;;;;;;41.83;21.03;;;;;;;;;;5049973;28;20429;-71
2022/12/25 09:41:55;;;;;;;43.87;20.90;;;;;;;;;;5049295;28;20438;-71
2022/12/25 09:44:23;;;;;;;46.40;21.47;;;;;;;;;;5049657;28;20792;-71
2022/12/25 09:46:50;;;;;;;44.03;21.07;;;;;;;;;;5031782;28;20491;-71
2022/12/25 09:49:21;;;;;;;46.03;21.47;;;;;;;;;;5049062;28;20488;-71
2022/12/25 09:51:49;;;;;;;48.20;22.30;;;;;;;;;;5032169;28;20436;-71
2022/12/25 09:54:42;;;;;;;44.50;21.73;;;;;;;;;;5066602;28;20436;-71
2022/12/25 09:57:10;;;;;;;47.80;22.57;;;;;;;;;;5024969;28;20948;-71
2022/12/25 09:59:36;;;;;;;49.53;24.80;;;;;;;;;;5048793;28;20951;-71
2022/12/25 10:02:04;;;;;;;51.03;24.03;;;;;;;;;;5015950;28;20521;-71
2022/12/25 10:04:31;;;;;;;51.70;25.43;;;;;;;;;;5049537;28;20443;-71
2022/12/25 10:07:08;;;;;;;53.00;24.13;;;;;;;;;;5048984;28;20468;-71
2022/12/25 10:09:56;;;;;;;51.23;24.43;;;;;;;;;;5031339;28;20452;-71
2022/12/25 10:12:52;;;;;;;57.53;26.43;;;;;;;;;;5034649;28;20778;-71
2022/12/25 10:15:35;;;;;;;85.47;44.73;;;;;;;;;;5032164;28;20467;-71
2022/12/25 10:18:17;;;;;;;52.10;25.10;;;;;;;;;;5049220;28;20953;-71
2022/12/25 10:20:51;;;;;;;54.27;25.00;;;;;;;;;;5049046;28;20430;-71
2022/12/25 10:23:18;;;;;;;52.87;24.30;;;;;;;;;;5049420;28;20441;-71
2022/12/25 10:25:45;;;;;;;55.47;25.13;;;;;;;;;;5014807;28;20448;-71
2022/12/25 10:28:13;;;;;;;47.17;23.70;;;;;;;;;;5031453;28;20475;-71
2022/12/25 10:30:44;;;;;;;50.53;22.73;;;;;;;;;;5031900;28;20430;-71
2022/12/25 10:33:11;;;;;;;47.13;21.77;;;;;;;;;;5049244;28;20926;-71
2022/12/25 10:35:43;;;;;;;44.57;21.43;;;;;;;;;;5031975;28;20449;-71
2022/12/25 10:38:15;;;;;;;46.20;21.97;;;;;;;;;;5031653;28;20424;-71
2022/12/25 10:40:55;;;;;;;49.33;24.03;;;;;;;;;;5031239;28;20475;-71
2022/12/25 10:43:23;;;;;;;47.30;23.27;;;;;;;;;;5048855;28;20935;-71
2022/12/25 10:45:51;;;;;;;48.60;22.73;;;;;;;;;;5015288;28;20442;-71
2022/12/25 10:48:20;;;;;;;46.10;21.47;;;;;;;;;;5049195;28;21060;-71
2022/12/25 10:50:47;;;;;;;46.83;20.53;;;;;;;;;;5031634;28;20950;-71
2022/12/25 10:53:26;;;;;;;48.43;21.03;;;;;;;;;;5039824;28;20924;-71
2022/12/25 10:56:01;;;;;;;45.13;19.40;;;;;;;;;;5051349;28;20452;-71
2022/12/25 10:58:28;;;;;;;37.23;19.23;;;;;;;;;;5030898;28;20983;-72
2022/12/25 11:00:58;;;;;;;40.20;19.27;;;;;;;;;;5049355;28;20417;-72
2022/12/25 11:03:27;;;;;;;35.23;17.97;;;;;;;;;;5049174;28;20433;-72
2022/12/25 11:05:54;;;;;;;39.43;18.70;;;;;;;;;;5031265;28;20816;-71
2022/12/25 11:08:23;;;;;;;34.57;16.60;;;;;;;;;;5015194;28;20540;-72
2022/12/25 11:10:55;;;;;;;35.63;16.80;;;;;;;;;;5048965;28;20549;-72
2022/12/25 11:13:23;;;;;;;44.83;19.97;;;;;;;;;;5031003;28;21045;-72
2022/12/25 11:16:01;;;;;;;40.37;19.97;;;;;;;;;;5030901;28;20439;-72
2022/12/25 11:18:31;;;;;;;35.03;17.97;;;;;;;;;;5031846;28;20904;-72
2022/12/25 11:21:01;;;;;;;37.97;18.17;;;;;;;;;;5049374;28;20479;-72
2022/12/25 11:23:29;;;;;;;44.07;20.47;;;;;;;;;;5052432;28;20435;-72
2022/12/25 11:26:06;;;;;;;40.80;18.60;;;;;;;;;;5034730;28;20479;-72
2022/12/25 11:28:33;;;;;;;36.97;16.70;;;;;;;;;;5051960;28;20472;-72
2022/12/25 11:31:02;;;;;;;36.70;16.90;;;;;;;;;;5018117;28;20523;-72
2022/12/25 11:33:34;;;;;;;42.73;18.33;;;;;;;;;;5035592;28;20436;-72
2022/12/25 11:36:02;;;;;;;42.03;18.53;;;;;;;;;;5034487;28;20452;-72
2022/12/25 11:38:29;;;;;;;40.17;18.67;;;;;;;;;;5050414;28;20441;-72
2022/12/25 11:40:57;;;;;;;41.97;18.63;;;;;;;;;;5052166;28;20433;-72
2022/12/25 11:43:26;;;;;;;47.40;20.23;;;;;;;;;;5034252;28;20425;-73
2022/12/25 11:45:59;;;;;;;39.80;19.07;;;;;;;;;;5034400;28;20499;-72
2022/12/25 11:48:36;;;;;;;48.80;20.27;;;;;;;;;;5034150;28;20480;-72
2022/12/25 11:51:03;;;;;;;40.77;18.47;;;;;;;;;;5034239;28;20537;-72
2022/12/25 11:53:33;;;;;;;35.97;16.57;;;;;;;;;;5062158;28;20425;-72
2022/12/25 11:56:01;;;;;;;32.80;15.63;;;;;;;;;;5054229;28;20409;-72
2022/12/25 11:58:34;;;;;;;38.23;16.87;;;;;;;;;;5054154;28;20515;-73
2022/12/25 12:01:02;;;;;;;41.97;20.10;;;;;;;;;;5049231;28;20449;-72
2022/12/25 12:03:35;;;;;;;51.20;21.50;;;;;;;;;;5034499;28;20443;-72
2022/12/25 12:06:03;;;;;;;54.83;23.33;;;;;;;;;;5033998;28;20447;-72
2022/12/25 12:08:30;;;;;;;43.27;21.27;;;;;;;;;;5034102;28;20452;-72
2022/12/25 12:11:15;;;;;;;42.63;20.30;;;;;;;;;;5033920;28;20952;-73
2022/12/25 12:14:01;;;;;;;50.70;22.07;;;;;;;;;;5051454;28;20430;-73
2022/12/25 12:16:28;;;;;;;46.63;21.37;;;;;;;;;;5050858;28;20531;-73
2022/12/25 12:18:55;;;;;;;44.70;20.87;;;;;;;;;;5033981;28;20424;-72
2022/12/25 12:21:25;;;;;;;42.10;21.10;;;;;;;;;;5033753;28;20467;-72
2022/12/25 12:24:06;;;;;;;57.23;24.50;;;;;;;;;;5033367;28;20445;-73
2022/12/25 12:26:35;;;;;;;54.87;22.77;;;;;;;;;;5049912;28;20468;-72
2022/12/25 12:29:03;;;;;;;54.50;22.97;;;;;;;;;;5033651;28;20500;-72
2022/12/25 12:31:36;;;;;;;62.27;25.87;;;;;;;;;;5051496;28;20429;-72
2022/12/25 12:34:03;;;;;;;50.13;21.53;;;;;;;;;;5032873;28;20503;-72
2022/12/25 12:36:30;;;;;;;49.50;21.07;;;;;;;;;;5051158;28;20433;-72
2022/12/25 12:39:04;;;;;;;49.47;21.43;;;;;;;;;;5017562;28;20444;-72
2022/12/25 12:41:42;;;;;;;61.73;23.77;;;;;;;;;;5016837;28;20429;-72
2022/12/25 12:44:09;;;;;;;62.90;24.27;;;;;;;;;;5033266;28;20429;-72
2022/12/25 12:46:36;;;;;;;60.27;24.93;;;;;;;;;;5033267;28;20426;-72
2022/12/25 12:49:07;;;;;;;53.40;21.73;;;;;;;;;;5050511;28;20484;-72
2022/12/25 12:51:35;;;;;;;47.33;21.97;;;;;;;;;;5033291;28;20445;-73
2022/12/25 12:54:16;;;;;;;50.17;22.40;;;;;;;;;;5047351;28;20662;-72
2022/12/25 12:56:53;;;;;;;56.93;24.43;;;;;;;;;;5070525;28;21090;-72
2022/12/25 12:59:20;;;;;;;56.07;22.93;;;;;;;;;;5052630;28;20471;-72
2022/12/25 13:01:50;;;;;;;60.80;23.80;;;;;;;;;;5070621;28;20525;-72
2022/12/25 13:04:36;;;;;;;55.30;21.70;;;;;;;;;;5070561;28;20447;-72
2022/12/25 13:07:03;;;;;;;53.90;22.90;;;;;;;;;;5052163;28;21043;-73
2022/12/25 13:09:39;;;;;;;61.23;24.47;;;;;;;;;;5070740;28;20490;-73
2022/12/25 13:12:23;;;;;;;67.20;26.80;;;;;;;;;;5064765;28;20444;-72
2022/12/25 13:14:50;;;;;;;70.10;28.60;;;;;;;;;;5031761;28;20463;-72
2022/12/25 13:17:18;;;;;;;55.07;22.40;;;;;;;;;;5050146;28;20458;-72
2022/12/25 13:19:44;;;;;;;67.57;25.07;;;;;;;;;;5050321;28;20431;-72
2022/12/25 13:22:23;;;;;;;66.20;25.23;;;;;;;;;;5028946;28;20446;-72
2022/12/25 13:24:53;;;;;;;69.40;24.40;;;;;;;;;;5049353;28;20418;-72
2022/12/25 13:27:21;;;;;;;65.80;26.83;;;;;;;;;;5032803;28;20438;-72
2022/12/25 13:29:47;;;;;;;62.90;24.83;;;;;;;;;;5032407;28;20484;-72
2022/12/25 13:32:30;;;;;;;66.30;27.07;;;;;;;;;;5032517;28;20958;-72
2022/12/25 13:34:57;;;;;;;68.37;26.13;;;;;;;;;;5032219;28;20447;-72
2022/12/25 13:37:25;;;;;;;57.70;25.20;;;;;;;;;;5032227;28;20524;-72
2022/12/25 13:39:52;;;;;;;66.10;25.40;;;;;;;;;;5032345;28;20492;-72
2022/12/25 13:42:26;;;;;;;68.00;25.03;;;;;;;;;;5032812;28;20520;-72
2022/12/25 13:44:57;;;;;;;63.30;26.13;;;;;;;;;;5049053;28;20941;-72
2022/12/25 13:47:30;;;;;;;68.77;27.30;;;;;;;;;;5031961;28;20487;-72
2022/12/25 13:49:58;;;;;;;65.50;27.03;;;;;;;;;;5031323;28;20484;-72
2022/12/25 13:52:35;;;;;;;64.17;27.23;;;;;;;;;;5033488;28;20437;-72
2022/12/25 13:55:03;;;;;;;59.73;25.33;;;;;;;;;;5069633;28;20484;-72
2022/12/25 13:57:33;;;;;;;68.47;26.00;;;;;;;;;;5051995;28;20445;-72
2022/12/25 13:59:59;;;;;;;66.40;27.50;;;;;;;;;;5069646;28;21044;-72
2022/12/25 14:02:28;;;;;;;68.03;26.73;;;;;;;;;;5069332;28;20448;-72
2022/12/25 14:04:56;;;;;;;74.00;27.53;;;;;;;;;;5051403;28;21010;-72
2022/12/25 14:07:25;;;;;;;79.93;29.37;;;;;;;;;;5069436;28;20424;-72
2022/12/25 14:09:56;;;;;;;74.30;29.17;;;;;;;;;;5069511;28;20476;-72
2022/12/25 14:12:23;;;;;;;76.00;29.73;;;;;;;;;;5035392;28;20436;-72
2022/12/25 14:14:51;;;;;;;72.03;27.87;;;;;;;;;;5049502;28;20445;-72
2022/12/25 14:17:18;;;;;;;74.63;27.67;;;;;;;;;;5031839;28;20433;-72
2022/12/25 14:19:55;;;;;;;74.40;28.03;;;;;;;;;;5049891;28;20480;-72
2022/12/25 14:22:30;;;;;;;75.27;28.90;;;;;;;;;;5049497;28;20881;-72
2022/12/25 14:24:57;;;;;;;73.77;28.17;;;;;;;;;;5041077;28;20487;-72
2022/12/25 14:27:25;;;;;;;85.67;31.30;;;;;;;;;;5032095;28;20433;-72
2022/12/25 14:29:54;;;;;;;79.37;30.10;;;;;;;;;;5031353;28;20465;-72
2022/12/25 14:32:22;;;;;;;75.90;26.93;;;;;;;;;;5038944;28;20443;-72
2022/12/25 14:34:53;;;;;;;74.53;26.57;;;;;;;;;;5051538;28;20436;-72
2022/12/25 14:37:20;;;;;;;64.37;25.43;;;;;;;;;;5035225;28;20491;-72
2022/12/25 14:39:54;;;;;;;78.10;26.67;;;;;;;;;;5069584;28;20488;-72
2022/12/25 14:42:24;;;;;;;86.70;26.20;;;;;;;;;;5069466;28;20435;-72
2022/12/25 14:44:55;;;;;;;77.57;27.30;;;;;;;;;;5051363;28;20432;-72
2022/12/25 14:47:22;;;;;;;74.97;27.43;;;;;;;;;;5069032;28;20498;-72
2022/12/25 14:49:52;;;;;;;86.77;27.13;;;;;;;;;;5050368;28;20487;-72
2022/12/25 14:52:19;;;;;;;71.57;26.30;;;;;;;;;;5049617;28;20437;-72
2022/12/25 14:54:47;;;;;;;76.97;26.63;;;;;;;;;;5069491;28;20789;-72
2022/12/25 14:57:17;;;;;;;85.23;27.17;;;;;;;;;;5053917;28;20472;-72
2022/12/25 14:59:44;;;;;;;70.10;26.17;;;;;;;;;;5054869;28;20435;-72
2022/12/25 15:02:14;;;;;;;88.87;30.90;;;;;;;;;;5055151;28;20436;-72
2022/12/25 15:04:41;;;;;;;72.53;28.07;;;;;;;;;;5072799;28;21370;-72
2022/12/25 15:07:27;;;;;;;83.60;29.13;;;;;;;;;;5035536;28;20943;-72
2022/12/25 15:09:54;;;;;;;76.97;28.73;;;;;;;;;;5018677;28;20562;-72
2022/12/25 15:12:41;;;;;;;66.17;26.70;;;;;;;;;;5052901;28;20447;-72
2022/12/25 15:15:25;;;;;;;75.40;29.13;;;;;;;;;;5052838;28;20420;-72
2022/12/25 15:17:53;;;;;;;86.23;27.93;;;;;;;;;;5034898;28;20443;-72
2022/12/25 15:20:20;;;;;;;77.37;27.00;;;;;;;;;;5052405;28;20798;-72
2022/12/25 15:22:47;;;;;;;77.20;29.30;;;;;;;;;;5034795;28;20429;-72
2022/12/25 15:25:33;;;;;;;65.10;26.90;;;;;;;;;;5037697;28;20520;-72
2022/12/25 15:28:01;;;;;;;65.10;24.83;;;;;;;;;;5034228;28;20427;-72
2022/12/25 15:30:34;;;;;;;75.60;25.33;;;;;;;;;;5052645;28;20504;-72
2022/12/25 15:33:02;;;;;;;68.53;24.97;;;;;;;;;;5052288;28;20462;-72
2022/12/25 15:35:31;;;;;;;75.43;26.20;;;;;;;;;;5034887;28;20429;-72
2022/12/25 15:37:58;;;;;;;61.73;25.57;;;;;;;;;;5052300;28;20421;-72
2022/12/25 15:40:25;;;;;;;68.67;25.30;;;;;;;;;;5051995;28;20487;-72
2022/12/25 15:42:51;;;;;;;61.40;25.43;;;;;;;;;;5034191;28;20445;-72
2022/12/25 15:45:26;;;;;;;68.53;26.47;;;;;;;;;;5052322;28;20429;-72
2022/12/25 15:47:53;;;;;;;66.20;26.67;;;;;;;;;;5034557;28;20435;-72
2022/12/25 15:50:20;;;;;;;78.63;27.83;;;;;;;;;;5047257;28;20486;-72
2022/12/25 15:52:48;;;;;;;79.70;28.83;;;;;;;;;;5055342;28;20459;-72
2022/12/25 15:55:15;;;;;;;68.10;26.63;;;;;;;;;;5070754;28;20435;-72
2022/12/25 15:57:42;;;;;;;64.33;26.57;;;;;;;;;;5070781;28;20494;-72
2022/12/25 16:00:13;;;;;;;65.20;26.47;;;;;;;;;;5070703;28;20947;-72
2022/12/25 16:02:40;;;;;;;73.00;26.43;;;;;;;;;;5070619;28;20437;-72
2022/12/25 16:05:07;;;;;;;64.87;25.67;;;;;;;;;;5071854;28;20424;-72
2022/12/25 16:07:36;;;;;;;76.93;28.07;;;;;;;;;;5066435;28;20502;-72
2022/12/25 16:10:05;;;;;;;73.13;26.90;;;;;;;;;;5050023;28;20522;-72
2022/12/25 16:12:32;;;;;;;71.43;26.53;;;;;;;;;;5051893;28;20951;-72
2022/12/25 16:14:59;;;;;;;76.77;26.57;;;;;;;;;;5051462;28;20437;-72